Terminal Aerodrome Forecast
Issued by NWS

Home | Current Version | Previous Version | Text Only | Print | Product List | Glossary Off
Versions: 1 2 3 4 5 6 7 8 9 10 11 12 13 14 15 16 17 18 19 20 21 22

777
FTUS43 KMPX 222336
TAFAXN
TAF
KAXN 222336Z 2300/2324 07009KT P6SM SCT020 OVC050
      TEMPO 2300/2304 BKN020
     FM230400 07010KT P6SM OVC020
     FM230900 08012KT P6SM OVC010
     FM231500 10013G20KT P6SM OVC018=

USA.gov is the U.S. government's official web portal to all federal, state and local government web resources and services.